sensor_id;sensor_type;location;lat;lon;timestamp;pressure;altitude;pressure_sealevel;temperature;humidity
6150;BME280;3106;42.670;23.318;2024-02-21T00:02:05;95060.91;;;6.03;100.00
6150;BME280;3106;42.670;23.318;2024-02-21T00:04:32;95056.38;;;5.91;100.00
6150;BME280;3106;42.670;23.318;2024-02-21T00:07:00;95060.97;;;5.98;100.00
6150;BME280;3106;42.670;23.318;2024-02-21T00:09:28;95066.00;;;6.00;100.00
6150;BME280;3106;42.670;23.318;2024-02-21T00:11:55;95060.97;;;5.98;100.00
6150;BME280;3106;42.670;23.318;2024-02-21T00:14:24;95070.50;;;5.99;100.00
6150;BME280;3106;42.670;23.318;2024-02-21T00:16:51;95062.75;;;6.03;100.00
6150;BME280;3106;42.670;23.318;2024-02-21T00:19:19;95062.25;;;6.01;100.00
6150;BME280;3106;42.670;23.318;2024-02-21T00:21:46;95062.06;;;5.97;100.00
6150;BME280;3106;42.670;23.318;2024-02-21T00:24:16;95060.00;;;5.94;100.00
6150;BME280;3106;42.670;23.318;2024-02-21T00:26:43;95058.16;;;5.95;100.00
6150;BME280;3106;42.670;23.318;2024-02-21T00:29:10;95068.44;;;5.96;100.00
6150;BME280;3106;42.670;23.318;2024-02-21T00:31:36;95047.94;;;5.89;100.00
6150;BME280;3106;42.670;23.318;2024-02-21T00:34:04;95050.97;;;5.95;100.00
6150;BME280;3106;42.670;23.318;2024-02-21T00:36:31;95068.53;;;6.05;100.00
6150;BME280;3106;42.670;23.318;2024-02-21T00:39:00;95025.84;;;5.80;100.00
6150;BME280;3106;42.670;23.318;2024-02-21T00:41:28;95049.09;;;5.96;100.00
6150;BME280;3106;42.670;23.318;2024-02-21T00:43:55;95054.22;;;5.93;100.00
6150;BME280;3106;42.670;23.318;2024-02-21T00:46:22;95032.13;;;5.84;100.00
6150;BME280;3106;42.670;23.318;2024-02-21T00:48:49;95048.31;;;5.95;100.00
6150;BME280;3106;42.670;23.318;2024-02-21T00:51:16;95019.16;;;5.69;100.00
6150;BME280;3106;42.670;23.318;2024-02-21T00:53:46;95046.34;;;5.88;100.00
6150;BME280;3106;42.670;23.318;2024-02-21T00:56:13;95045.28;;;5.89;100.00
6150;BME280;3106;42.670;23.318;2024-02-21T00:58:42;95019.63;;;5.71;100.00
6150;BME280;3106;42.670;23.318;2024-02-21T01:01:08;95035.38;;;5.81;100.00
6150;BME280;3106;42.670;23.318;2024-02-21T01:03:39;95036.44;;;5.80;100.00
6150;BME280;3106;42.670;23.318;2024-02-21T01:06:05;95026.94;;;5.79;100.00
6150;BME280;3106;42.670;23.318;2024-02-21T01:08:32;94991.84;;;5.55;100.00
6150;BME280;3106;42.670;23.318;2024-02-21T01:10:59;95013.16;;;5.77;100.00
6150;BME280;3106;42.670;23.318;2024-02-21T01:13:25;95023.34;;;5.83;100.00
6150;BME280;3106;42.670;23.318;2024-02-21T01:15:53;95013.91;;;5.77;100.00
6150;BME280;3106;42.670;23.318;2024-02-21T01:18:20;95018.06;;;5.83;100.00
6150;BME280;3106;42.670;23.318;2024-02-21T01:20:47;95017.28;;;5.83;100.00
6150;BME280;3106;42.670;23.318;2024-02-21T01:23:14;95015.72;;;5.82;100.00
6150;BME280;3106;42.670;23.318;2024-02-21T01:25:40;95019.94;;;5.83;100.00
6150;BME280;3106;42.670;23.318;2024-02-21T01:28:08;94994.00;;;5.66;100.00
6150;BME280;3106;42.670;23.318;2024-02-21T01:30:34;94983.19;;;5.63;100.00
6150;BME280;3106;42.670;23.318;2024-02-21T01:33:03;94998.59;;;5.74;100.00
6150;BME280;3106;42.670;23.318;2024-02-21T01:35:30;95018.06;;;5.83;100.00
6150;BME280;3106;42.670;23.318;2024-02-21T01:37:57;95004.31;;;5.81;100.00
6150;BME280;3106;42.670;23.318;2024-02-21T01:40:24;95010.63;;;5.85;100.00
6150;BME280;3106;42.670;23.318;2024-02-21T01:42:50;95002.06;;;5.88;100.00
6150;BME280;3106;42.670;23.318;2024-02-21T01:45:19;95001.84;;;5.85;100.00
6150;BME280;3106;42.670;23.318;2024-02-21T01:47:46;94999.88;;;5.90;100.00
6150;BME280;3106;42.670;23.318;2024-02-21T01:50:15;94996.16;;;5.91;100.00
6150;BME280;3106;42.670;23.318;2024-02-21T01:52:43;94996.63;;;5.93;100.00
6150;BME280;3106;42.670;23.318;2024-02-21T01:55:14;94996.16;;;5.91;100.00
6150;BME280;3106;42.670;23.318;2024-02-21T01:57:43;94997.69;;;6.05;100.00
6150;BME280;3106;42.670;23.318;2024-02-21T02:00:13;94993.94;;;6.06;100.00
6150;BME280;3106;42.670;23.318;2024-02-21T02:02:42;94992.88;;;6.07;100.00
6150;BME280;3106;42.670;23.318;2024-02-21T02:05:10;94992.25;;;6.10;100.00
6150;BME280;3106;42.670;23.318;2024-02-21T02:07:39;94984.50;;;6.00;100.00
6150;BME280;3106;42.670;23.318;2024-02-21T02:10:07;94997.75;;;6.14;100.00
6150;BME280;3106;42.670;23.318;2024-02-21T02:12:36;94998.41;;;6.19;100.00
6150;BME280;3106;42.670;23.318;2024-02-21T02:15:06;94998.72;;;6.18;100.00
6150;BME280;3106;42.670;23.318;2024-02-21T02:17:36;94992.03;;;6.20;100.00
6150;BME280;3106;42.670;23.318;2024-02-21T02:20:03;94995.75;;;6.19;100.00
6150;BME280;3106;42.670;23.318;2024-02-21T02:22:32;94994.19;;;6.18;100.00
6150;BME280;3106;42.670;23.318;2024-02-21T02:25:04;94983.22;;;6.11;100.00
6150;BME280;3106;42.670;23.318;2024-02-21T02:27:31;94984.41;;;6.05;100.00
6150;BME280;3106;42.670;23.318;2024-02-21T02:29:58;94986.00;;;6.06;100.00
6150;BME280;3106;42.670;23.318;2024-02-21T02:32:25;94988.44;;;6.03;100.00
6150;BME280;3106;42.670;23.318;2024-02-21T02:34:51;94977.06;;;6.02;100.00
6150;BME280;3106;42.670;23.318;2024-02-21T02:37:18;94985.19;;;6.06;100.00
6150;BME280;3106;42.670;23.318;2024-02-21T02:39:44;94972.53;;;6.03;100.00
6150;BME280;3106;42.670;23.318;2024-02-21T02:42:13;94962.13;;;5.93;100.00
6150;BME280;3106;42.670;23.318;2024-02-21T02:44:39;94977.41;;;6.09;100.00
6150;BME280;3106;42.670;23.318;2024-02-21T02:47:08;94973.81;;;6.05;100.00
6150;BME280;3106;42.670;23.318;2024-02-21T02:49:35;94976.13;;;6.07;100.00
6150;BME280;3106;42.670;23.318;2024-02-21T02:52:02;94978.03;;;6.06;100.00
6150;BME280;3106;42.670;23.318;2024-02-21T02:54:29;94984.78;;;6.12;100.00
6150;BME280;3106;42.670;23.318;2024-02-21T02:56:55;94987.59;;;6.16;100.00
6150;BME280;3106;42.670;23.318;2024-02-21T02:59:24;94982.28;;;6.16;100.00
6150;BME280;3106;42.670;23.318;2024-02-21T03:01:50;94964.56;;;6.03;100.00
6150;BME280;3106;42.670;23.318;2024-02-21T03:04:19;94985.28;;;6.14;100.00
6150;BME280;3106;42.670;23.318;2024-02-21T03:06:45;94986.84;;;6.15;100.00
6150;BME280;3106;42.670;23.318;2024-02-21T03:09:13;94975.25;;;6.11;100.00
6150;BME280;3106;42.670;23.318;2024-02-21T03:11:40;94968.91;;;5.99;100.00
6150;BME280;3106;42.670;23.318;2024-02-21T03:14:09;94988.66;;;6.06;100.00
6150;BME280;3106;42.670;23.318;2024-02-21T03:16:38;95000.41;;;6.14;100.00
6150;BME280;3106;42.670;23.318;2024-02-21T03:19:04;94999.31;;;6.15;100.00
6150;BME280;3106;42.670;23.318;2024-02-21T03:21:31;95004.72;;;6.10;100.00
6150;BME280;3106;42.670;23.318;2024-02-21T03:23:58;95001.13;;;6.06;100.00
6150;BME280;3106;42.670;23.318;2024-02-21T03:26:28;95003.59;;;6.02;100.00
6150;BME280;3106;42.670;23.318;2024-02-21T03:28:55;94972.88;;;5.88;100.00
6150;BME280;3106;42.670;23.318;2024-02-21T03:31:21;95005.34;;;6.07;100.00
6150;BME280;3106;42.670;23.318;2024-02-21T03:33:50;95005.94;;;6.04;100.00
6150;BME280;3106;42.670;23.318;2024-02-21T03:36:17;95000.94;;;6.02;100.00
6150;BME280;3106;42.670;23.318;2024-02-21T03:38:44;95008.91;;;6.02;100.00
6150;BME280;3106;42.670;23.318;2024-02-21T03:41:15;95004.97;;;6.00;100.00
6150;BME280;3106;42.670;23.318;2024-02-21T03:43:42;95008.72;;;5.99;100.00
6150;BME280;3106;42.670;23.318;2024-02-21T03:46:09;95016.88;;;6.02;100.00
6150;BME280;3106;42.670;23.318;2024-02-21T03:48:38;95014.50;;;6.01;100.00
6150;BME280;3106;42.670;23.318;2024-02-21T03:51:07;95006.06;;;5.99;100.00
6150;BME280;3106;42.670;23.318;2024-02-21T03:53:34;95012.81;;;6.05;100.00
6150;BME280;3106;42.670;23.318;2024-02-21T03:56:01;95018.72;;;6.02;100.00
6150;BME280;3106;42.670;23.318;2024-02-21T03:58:29;95019.53;;;6.02;100.00
6150;BME280;3106;42.670;23.318;2024-02-21T04:00:56;95006.94;;;5.94;100.00
6150;BME280;3106;42.670;23.318;2024-02-21T04:03:22;95017.44;;;5.99;100.00
6150;BME280;3106;42.670;23.318;2024-02-21T04:05:49;95017.25;;;5.96;100.00
6150;BME280;3106;42.670;23.318;2024-02-21T04:08:18;94993.13;;;5.84;100.00
6150;BME280;3106;42.670;23.318;2024-02-21T04:10:45;95011.97;;;5.96;100.00
6150;BME280;3106;42.670;23.318;2024-02-21T04:13:12;95003.50;;;5.94;100.00
6150;BME280;3106;42.670;23.318;2024-02-21T04:15:42;95012.56;;;5.93;100.00
6150;BME280;3106;42.670;23.318;2024-02-21T04:18:10;94998.44;;;5.84;100.00
6150;BME280;3106;42.670;23.318;2024-02-21T04:20:37;95007.38;;;5.88;100.00
6150;BME280;3106;42.670;23.318;2024-02-21T04:23:03;95011.00;;;5.92;100.00
6150;BME280;3106;42.670;23.318;2024-02-21T04:25:31;95011.47;;;5.94;100.00
6150;BME280;3106;42.670;23.318;2024-02-21T04:27:57;94996.63;;;5.93;100.00
6150;BME280;3106;42.670;23.318;2024-02-21T04:30:25;95013.81;;;5.95;100.00
6150;BME280;3106;42.670;23.318;2024-02-21T04:32:52;95011.16;;;5.95;100.00
6150;BME280;3106;42.670;23.318;2024-02-21T04:35:20;95004.59;;;5.93;100.00
6150;BME280;3106;42.670;23.318;2024-02-21T04:37:49;95014.03;;;5.86;100.00
6150;BME280;3106;42.670;23.318;2024-02-21T04:40:16;95010.69;;;5.80;100.00
6150;BME280;3106;42.670;23.318;2024-02-21T04:42:44;95012.16;;;5.73;100.00
6150;BME280;3106;42.670;23.318;2024-02-21T04:45:13;95006.50;;;5.66;100.00
6150;BME280;3106;42.670;23.318;2024-02-21T04:47:40;95013.03;;;5.68;100.00
6150;BME280;3106;42.670;23.318;2024-02-21T04:50:07;95011.47;;;5.67;100.00
6150;BME280;3106;42.670;23.318;2024-02-21T04:52:34;95004.50;;;5.58;100.00
6150;BME280;3106;42.670;23.318;2024-02-21T04:55:00;95003.75;;;5.57;100.00
6150;BME280;3106;42.670;23.318;2024-02-21T04:57:27;95011.69;;;5.57;100.00
6150;BME280;3106;42.670;23.318;2024-02-21T04:59:57;95009.03;;;5.57;100.00
6150;BME280;3106;42.670;23.318;2024-02-21T05:02:25;94997.25;;;5.50;100.00
6150;BME280;3106;42.670;23.318;2024-02-21T05:04:53;94996.75;;;5.48;100.00
6150;BME280;3106;42.670;23.318;2024-02-21T05:07:20;94995.00;;;5.43;100.00
6150;BME280;3106;42.670;23.318;2024-02-21T05:09:47;95011.38;;;5.59;100.00
6150;BME280;3106;42.670;23.318;2024-02-21T05:12:14;95010.13;;;5.56;100.00
6150;BME280;3106;42.670;23.318;2024-02-21T05:14:42;95006.28;;;5.49;100.00
6150;BME280;3106;42.670;23.318;2024-02-21T05:17:11;95014.63;;;5.56;100.00
6150;BME280;3106;42.670;23.318;2024-02-21T05:19:37;95019.81;;;5.61;100.00
6150;BME280;3106;42.670;23.318;2024-02-21T05:22:04;95028.47;;;5.66;100.00
6150;BME280;3106;42.670;23.318;2024-02-21T05:24:38;95023.38;;;5.70;100.00
6150;BME280;3106;42.670;23.318;2024-02-21T05:27:06;95026.03;;;5.70;100.00
6150;BME280;3106;42.670;23.318;2024-02-21T05:29:33;95018.34;;;5.68;100.00
6150;BME280;3106;42.670;23.318;2024-02-21T05:32:03;95026.50;;;5.72;100.00
6150;BME280;3106;42.670;23.318;2024-02-21T05:34:35;95025.72;;;5.71;100.00
6150;BME280;3106;42.670;23.318;2024-02-21T05:37:02;94999.69;;;5.60;100.00
6150;BME280;3106;42.670;23.318;2024-02-21T05:39:29;95031.72;;;5.77;100.00
6150;BME280;3106;42.670;23.318;2024-02-21T05:41:56;94998.72;;;5.56;100.00
6150;BME280;3106;42.670;23.318;2024-02-21T05:44:25;95031.44;;;5.78;100.00
6150;BME280;3106;42.670;23.318;2024-02-21T05:46:52;95028.50;;;5.80;100.00
6150;BME280;3106;42.670;23.318;2024-02-21T05:49:20;95028.09;;;5.86;100.00
6150;BME280;3106;42.670;23.318;2024-02-21T05:51:51;95031.25;;;5.88;100.00
6150;BME280;3106;42.670;23.318;2024-02-21T05:54:18;95037.63;;;5.87;100.00
6150;BME280;3106;42.670;23.318;2024-02-21T05:56:46;95034.38;;;5.90;100.00
6150;BME280;3106;42.670;23.318;2024-02-21T05:59:14;95044.69;;;5.92;100.00
6150;BME280;3106;42.670;23.318;2024-02-21T06:01:42;95045.16;;;5.93;100.00
6150;BME280;3106;42.670;23.318;2024-02-21T06:04:08;95048.72;;;6.02;100.00
6150;BME280;3106;42.670;23.318;2024-02-21T06:06:35;95024.25;;;5.92;100.00
6150;BME280;3106;42.670;23.318;2024-02-21T06:09:07;95028.13;;;6.08;100.00
6150;BME280;3106;42.670;23.318;2024-02-21T06:11:42;95049.22;;;6.26;100.00
6150;BME280;3106;42.670;23.318;2024-02-21T06:14:08;95057.97;;;6.40;99.49
6150;BME280;3106;42.670;23.318;2024-02-21T06:16:36;95054.97;;;6.42;99.72
6150;BME280;3106;42.670;23.318;2024-02-21T06:19:02;95057.72;;;6.50;99.53
6150;BME280;3106;42.670;23.318;2024-02-21T06:21:30;95065.44;;;6.60;98.20
6150;BME280;3106;42.670;23.318;2024-02-21T06:23:58;95066.13;;;6.66;98.39
6150;BME280;3106;42.670;23.318;2024-02-21T06:26:26;95055.84;;;6.73;97.89
6150;BME280;3106;42.670;23.318;2024-02-21T06:28:53;95066.72;;;6.85;96.91
6150;BME280;3106;42.670;23.318;2024-02-21T06:31:19;95065.94;;;6.84;96.78
6150;BME280;3106;42.670;23.318;2024-02-21T06:33:46;95062.31;;;6.80;96.50
6150;BME280;3106;42.670;23.318;2024-02-21T06:36:13;95075.16;;;6.87;96.46
6150;BME280;3106;42.670;23.318;2024-02-21T06:38:43;95080.69;;;6.90;96.45
6150;BME280;3106;42.670;23.318;2024-02-21T06:41:15;95070.41;;;6.97;95.70
6150;BME280;3106;42.670;23.318;2024-02-21T06:43:43;95074.13;;;7.18;95.26
6150;BME280;3106;42.670;23.318;2024-02-21T06:46:10;95086.22;;;7.24;94.82
6150;BME280;3106;42.670;23.318;2024-02-21T06:48:37;95089.25;;;7.40;94.27
6150;BME280;3106;42.670;23.318;2024-02-21T06:51:04;95098.81;;;7.41;93.58
6150;BME280;3106;42.670;23.318;2024-02-21T06:53:31;95097.13;;;7.44;93.27
6150;BME280;3106;42.670;23.318;2024-02-21T06:55:57;95091.38;;;7.51;93.49
6150;BME280;3106;42.670;23.318;2024-02-21T06:58:24;95057.81;;;7.42;93.03
6150;BME280;3106;42.670;23.318;2024-02-21T07:00:52;95097.09;;;7.75;93.08
6150;BME280;3106;42.670;23.318;2024-02-21T07:03:19;95092.94;;;7.91;91.93
6150;BME280;3106;42.670;23.318;2024-02-21T07:05:46;95085.72;;;7.91;91.83
6150;BME280;3106;42.670;23.318;2024-02-21T07:08:13;95092.94;;;7.91;91.25
6150;BME280;3106;42.670;23.318;2024-02-21T07:10:39;95059.06;;;7.83;90.74
6150;BME280;3106;42.670;23.318;2024-02-21T07:13:06;95084.66;;;8.01;90.31
6150;BME280;3106;42.670;23.318;2024-02-21T07:15:35;95083.09;;;8.00;90.81
6150;BME280;3106;42.670;23.318;2024-02-21T07:18:04;95093.91;;;8.03;91.02
6150;BME280;3106;42.670;23.318;2024-02-21T07:20:31;95098.44;;;8.03;90.35
6150;BME280;3106;42.670;23.318;2024-02-21T07:23:03;95085.56;;;7.88;91.67
6150;BME280;3106;42.670;23.318;2024-02-21T07:25:29;95096.41;;;8.00;90.76
6150;BME280;3106;42.670;23.318;2024-02-21T07:27:56;95100.91;;;7.99;90.22
6150;BME280;3106;42.670;23.318;2024-02-21T07:30:23;95065.38;;;7.87;90.47
6150;BME280;3106;42.670;23.318;2024-02-21T07:32:51;95090.59;;;7.98;90.92
6150;BME280;3106;42.670;23.318;2024-02-21T07:35:19;95098.16;;;8.13;90.95
6150;BME280;3106;42.670;23.318;2024-02-21T07:37:46;95097.53;;;8.16;90.87
6150;BME280;3106;42.670;23.318;2024-02-21T07:40:13;95108.38;;;8.19;90.61
6150;BME280;3106;42.670;23.318;2024-02-21T07:42:43;95101.50;;;8.27;89.77
6150;BME280;3106;42.670;23.318;2024-02-21T07:45:10;95102.00;;;8.46;89.40
6150;BME280;3106;42.670;23.318;2024-02-21T07:47:37;95103.44;;;8.69;88.43
6150;BME280;3106;42.670;23.318;2024-02-21T07:50:05;95114.25;;;8.64;88.16
6150;BME280;3106;42.670;23.318;2024-02-21T07:52:42;95104.38;;;8.73;87.09
6150;BME280;3106;42.670;23.318;2024-02-21T07:55:08;95091.38;;;8.63;86.72
6150;BME280;3106;42.670;23.318;2024-02-21T07:57:37;95096.22;;;8.52;87.33
6150;BME280;3106;42.670;23.318;2024-02-21T08:00:06;95079.63;;;8.64;87.33
6150;BME280;3106;42.670;23.318;2024-02-21T08:05:54;95074.28;;;8.81;85.43
6150;BME280;3106;42.670;23.318;2024-02-21T08:08:24;95075.84;;;8.98;85.28
6150;BME280;3106;42.670;23.318;2024-02-21T08:11:00;95095.09;;;9.04;85.36
6150;BME280;3106;42.670;23.318;2024-02-21T08:13:29;95092.91;;;9.14;84.68
6150;BME280;3106;42.670;23.318;2024-02-21T08:16:04;95081.94;;;9.07;84.80
6150;BME280;3106;42.670;23.318;2024-02-21T08:18:35;95090.06;;;9.36;84.08
6150;BME280;3106;42.670;23.318;2024-02-21T08:21:04;95085.28;;;9.50;82.10
6150;BME280;3106;42.670;23.318;2024-02-21T08:23:32;95088.13;;;9.45;81.83
6150;BME280;3106;42.670;23.318;2024-02-21T08:26:03;95065.69;;;9.38;82.19
6150;BME280;3106;42.670;23.318;2024-02-21T08:28:32;95075.09;;;9.44;82.42
6150;BME280;3106;42.670;23.318;2024-02-21T08:31:02;95092.00;;;9.65;81.27
6150;BME280;3106;42.670;23.318;2024-02-21T08:33:29;95050.13;;;9.48;80.86
6150;BME280;3106;42.670;23.318;2024-02-21T08:35:57;95085.66;;;9.78;80.35
6150;BME280;3106;42.670;23.318;2024-02-21T08:38:25;95090.22;;;9.86;80.39
6150;BME280;3106;42.670;23.318;2024-02-21T08:40:56;95089.03;;;9.95;79.50
6150;BME280;3106;42.670;23.318;2024-02-21T08:43:23;95076.69;;;9.91;78.94
6150;BME280;3106;42.670;23.318;2024-02-21T08:45:50;95053.59;;;9.86;78.34
6150;BME280;3106;42.670;23.318;2024-02-21T08:48:18;95085.41;;;10.08;77.00
6150;BME280;3106;42.670;23.318;2024-02-21T08:50:45;95076.69;;;9.91;76.33
6150;BME280;3106;42.670;23.318;2024-02-21T08:53:13;95088.88;;;10.00;76.37
6150;BME280;3106;42.670;23.318;2024-02-21T08:55:40;95072.63;;;9.85;76.26
6150;BME280;3106;42.670;23.318;2024-02-21T08:58:13;95089.59;;;9.80;76.34
6150;BME280;3106;42.670;23.318;2024-02-21T09:00:41;95082.41;;;9.72;76.64
6150;BME280;3106;42.670;23.318;2024-02-21T09:03:12;95093.56;;;9.66;77.39
6150;BME280;3106;42.670;23.318;2024-02-21T09:05:39;95086.19;;;9.71;78.04
6150;BME280;3106;42.670;23.318;2024-02-21T09:08:06;95100.75;;;9.74;77.84
6150;BME280;3106;42.670;23.318;2024-02-21T09:10:36;95077.31;;;9.42;78.27
6150;BME280;3106;42.670;23.318;2024-02-21T09:13:04;95084.00;;;9.56;78.46
6150;BME280;3106;42.670;23.318;2024-02-21T09:15:34;95078.34;;;9.66;78.81
6150;BME280;3106;42.670;23.318;2024-02-21T09:18:02;95090.34;;;9.89;79.12
6150;BME280;3106;42.670;23.318;2024-02-21T09:20:29;95087.75;;;10.10;79.37
6150;BME280;3106;42.670;23.318;2024-02-21T09:22:57;95092.97;;;10.06;78.96
6150;BME280;3106;42.670;23.318;2024-02-21T09:25:27;95086.53;;;9.99;78.98
6150;BME280;3106;42.670;23.318;2024-02-21T09:27:56;95089.56;;;9.89;79.73
6150;BME280;3106;42.670;23.318;2024-02-21T09:30:24;95089.38;;;9.94;80.27
6150;BME280;3106;42.670;23.318;2024-02-21T09:33:00;95091.78;;;9.87;80.32
6150;BME280;3106;42.670;23.318;2024-02-21T09:35:33;95091.25;;;9.93;80.29
6150;BME280;3106;42.670;23.318;2024-02-21T09:38:01;95091.59;;;9.92;79.99
6150;BME280;3106;42.670;23.318;2024-02-21T09:40:28;95095.75;;;9.72;80.43
6150;BME280;3106;42.670;23.318;2024-02-21T09:43:02;95087.31;;;9.62;80.95
6150;BME280;3106;42.670;23.318;2024-02-21T09:45:32;95093.56;;;9.66;80.08
6150;BME280;3106;42.670;23.318;2024-02-21T09:48:25;95089.31;;;9.73;79.95
6150;BME280;3106;42.670;23.318;2024-02-21T09:50:57;95055.72;;;9.72;79.24
6150;BME280;3106;42.670;23.318;2024-02-21T09:53:27;95084.69;;;9.91;78.37
6150;BME280;3106;42.670;23.318;2024-02-21T09:55:55;95089.59;;;9.80;79.01
6150;BME280;3106;42.670;23.318;2024-02-21T09:58:23;95093.56;;;9.66;79.65
6150;BME280;3106;42.670;23.318;2024-02-21T10:00:51;95073.88;;;9.41;78.67
6150;BME280;3106;42.670;23.318;2024-02-21T10:03:20;95087.03;;;9.55;78.53
6150;BME280;3106;42.670;23.318;2024-02-21T10:05:51;95080.25;;;9.57;78.30
6150;BME280;3106;42.670;23.318;2024-02-21T10:08:19;95089.16;;;9.70;76.45
6150;BME280;3106;42.670;23.318;2024-02-21T10:10:46;95071.09;;;9.75;76.37
6150;BME280;3106;42.670;23.318;2024-02-21T10:13:24;95087.28;;;9.99;75.41
6150;BME280;3106;42.670;23.318;2024-02-21T10:16:04;95078.13;;;10.17;74.17
6150;BME280;3106;42.670;23.318;2024-02-21T10:18:32;95075.31;;;10.14;73.26
6150;BME280;3106;42.670;23.318;2024-02-21T10:21:07;95062.94;;;10.09;73.32
6150;BME280;3106;42.670;23.318;2024-02-21T10:23:45;95080.00;;;10.17;72.94
6150;BME280;3106;42.670;23.318;2024-02-21T10:26:14;95068.22;;;10.18;72.03
6150;BME280;3106;42.670;23.318;2024-02-21T10:28:43;95063.59;;;10.06;71.10
6150;BME280;3106;42.670;23.318;2024-02-21T10:31:21;95039.78;;;9.84;71.73
6150;BME280;3106;42.670;23.318;2024-02-21T10:33:55;95031.13;;;9.87;71.17
6150;BME280;3106;42.670;23.318;2024-02-21T10:36:28;95041.75;;;10.04;71.51
6150;BME280;3106;42.670;23.318;2024-02-21T10:38:55;95035.13;;;10.10;71.28
6150;BME280;3106;42.670;23.318;2024-02-21T10:41:25;95030.44;;;10.28;70.09
6150;BME280;3106;42.670;23.318;2024-02-21T10:43:58;95029.09;;;10.42;69.76
6150;BME280;3106;42.670;23.318;2024-02-21T10:46:30;95020.69;;;10.52;69.05
6150;BME280;3106;42.670;23.318;2024-02-21T10:49:06;94997.72;;;10.51;68.13
6150;BME280;3106;42.670;23.318;2024-02-21T10:51:43;95020.50;;;10.89;66.64
6150;BME280;3106;42.670;23.318;2024-02-21T10:54:23;95004.75;;;11.08;65.35
6150;BME280;3106;42.670;23.318;2024-02-21T10:57:15;95013.34;;;10.81;65.37
6150;BME280;3106;42.670;23.318;2024-02-21T10:59:51;94995.28;;;10.78;65.19
6150;BME280;3106;42.670;23.318;2024-02-21T11:02:20;95000.16;;;11.09;63.32
6150;BME280;3106;42.670;23.318;2024-02-21T11:04:48;94997.91;;;11.31;60.97
6150;BME280;3106;42.670;23.318;2024-02-21T11:07:17;94984.81;;;11.18;60.67
6150;BME280;3106;42.670;23.318;2024-02-21T11:09:51;94992.78;;;11.38;60.45
6150;BME280;3106;42.670;23.318;2024-02-21T11:12:35;94990.41;;;11.25;60.76
6150;BME280;3106;42.670;23.318;2024-02-21T11:15:05;94981.88;;;11.11;60.29
6150;BME280;3106;42.670;23.318;2024-02-21T11:17:34;94989.84;;;10.87;60.04
6150;BME280;3106;42.670;23.318;2024-02-21T11:20:12;94986.94;;;10.80;59.87
6150;BME280;3106;42.670;23.318;2024-02-21T11:22:44;94986.50;;;10.78;59.07
6150;BME280;3106;42.670;23.318;2024-02-21T11:25:26;94984.75;;;10.61;59.61
6150;BME280;3106;42.670;23.318;2024-02-21T11:28:00;94986.22;;;10.71;59.42
6150;BME280;3106;42.670;23.318;2024-02-21T11:30:32;94984.53;;;10.66;58.68
6150;BME280;3106;42.670;23.318;2024-02-21T11:33:05;94985.09;;;10.72;58.17
6150;BME280;3106;42.670;23.318;2024-02-21T11:35:34;94970.50;;;10.69;57.71
6150;BME280;3106;42.670;23.318;2024-02-21T11:38:11;94968.91;;;10.89;57.17
6150;BME280;3106;42.670;23.318;2024-02-21T11:40:43;94958.22;;;11.01;56.84
6150;BME280;3106;42.670;23.318;2024-02-21T11:43:10;94974.78;;;11.15;56.17
6150;BME280;3106;42.670;23.318;2024-02-21T11:45:39;94957.34;;;11.09;55.96
6150;BME280;3106;42.670;23.318;2024-02-21T11:48:07;94966.75;;;11.27;55.15
6150;BME280;3106;42.670;23.318;2024-02-21T11:50:35;94963.31;;;11.38;53.47
6150;BME280;3106;42.670;23.318;2024-02-21T11:53:05;94953.59;;;11.22;54.30
6150;BME280;3106;42.670;23.318;2024-02-21T11:55:56;94957.34;;;10.97;54.23
6150;BME280;3106;42.670;23.318;2024-02-21T11:58:28;94961.69;;;11.01;55.27
6150;BME280;3106;42.670;23.318;2024-02-21T12:00:57;94960.25;;;11.04;54.91
6150;BME280;3106;42.670;23.318;2024-02-21T12:03:28;94950.28;;;10.92;56.05
6150;BME280;3106;42.670;23.318;2024-02-21T12:05:57;94954.84;;;10.80;56.81
6150;BME280;3106;42.670;23.318;2024-02-21T12:08:25;94936.44;;;10.78;56.37
6150;BME280;3106;42.670;23.318;2024-02-21T12:10:58;94931.06;;;10.66;56.91
6150;BME280;3106;42.670;23.318;2024-02-21T12:13:25;94931.97;;;10.70;57.06
6150;BME280;3106;42.670;23.318;2024-02-21T12:15:54;94946.56;;;10.73;57.70
6150;BME280;3106;42.670;23.318;2024-02-21T12:18:22;94926.59;;;10.58;58.22
6150;BME280;3106;42.670;23.318;2024-02-21T12:20:50;94944.53;;;10.70;58.48
6150;BME280;3106;42.670;23.318;2024-02-21T12:23:18;94940.50;;;10.64;59.47
6150;BME280;3106;42.670;23.318;2024-02-21T12:25:50;94924.53;;;10.23;59.57
6150;BME280;3106;42.670;23.318;2024-02-21T12:28:24;94931.88;;;10.26;60.13
6150;BME280;3106;42.670;23.318;2024-02-21T12:30:56;94945.97;;;10.15;60.41
6150;BME280;3106;42.670;23.318;2024-02-21T12:33:30;94932.09;;;10.21;60.55
6150;BME280;3106;42.670;23.318;2024-02-21T12:35:57;94908.81;;;10.01;60.63
6150;BME280;3106;42.670;23.318;2024-02-21T12:38:29;94929.41;;;10.21;61.27
6150;BME280;3106;42.670;23.318;2024-02-21T12:40:57;94925.63;;;10.22;60.61
6150;BME280;3106;42.670;23.318;2024-02-21T12:43:28;94910.78;;;10.13;59.36
6150;BME280;3106;42.670;23.318;2024-02-21T12:45:56;94873.97;;;9.98;59.41
6150;BME280;3106;42.670;23.318;2024-02-21T12:48:22;94924.06;;;10.42;58.25
6150;BME280;3106;42.670;23.318;2024-02-21T12:50:51;94924.88;;;10.54;58.22
6150;BME280;3106;42.670;23.318;2024-02-21T12:53:18;94898.88;;;10.43;57.89
6150;BME280;3106;42.670;23.318;2024-02-21T12:55:48;94924.91;;;10.66;57.09
6150;BME280;3106;42.670;23.318;2024-02-21T12:58:15;94908.34;;;10.72;57.05
6150;BME280;3106;42.670;23.318;2024-02-21T13:00:45;94897.41;;;10.65;59.07
6150;BME280;3106;42.670;23.318;2024-02-21T13:03:13;94903.63;;;10.57;62.58
6150;BME280;3106;42.670;23.318;2024-02-21T13:05:41;94910.63;;;10.50;65.06
6150;BME280;3106;42.670;23.318;2024-02-21T13:08:09;94892.31;;;10.40;66.59
6150;BME280;3106;42.670;23.318;2024-02-21T13:10:37;94903.19;;;10.35;66.66
6150;BME280;3106;42.670;23.318;2024-02-21T13:13:05;94885.25;;;10.24;66.26
6150;BME280;3106;42.670;23.318;2024-02-21T13:15:31;94911.63;;;10.25;65.59
6150;BME280;3106;42.670;23.318;2024-02-21T13:18:01;94899.31;;;10.12;67.29
6150;BME280;3106;42.670;23.318;2024-02-21T13:20:31;94899.84;;;10.06;68.64
6150;BME280;3106;42.670;23.318;2024-02-21T13:22:58;94901.13;;;10.00;69.40
6150;BME280;3106;42.670;23.318;2024-02-21T13:25:24;94899.56;;;9.99;70.73
6150;BME280;3106;42.670;23.318;2024-02-21T13:28:05;94889.84;;;9.94;71.63